sensor_id;sensor_type;location;lat;lon;timestamp;P1;durP1;ratioP1;P2;durP2;ratioP2
49366;SDS011;35245;52.026;8.540;2024-02-15T00:01:13;23.02;;;17.85;;
49366;SDS011;35245;52.026;8.540;2024-02-15T00:03:40;24.77;;;19.33;;
49366;SDS011;35245;52.026;8.540;2024-02-15T00:06:07;22.33;;;17.98;;
49366;SDS011;35245;52.026;8.540;2024-02-15T00:08:34;26.88;;;19.95;;
49366;SDS011;35245;52.026;8.540;2024-02-15T00:11:03;24.05;;;19.13;;
49366;SDS011;35245;52.026;8.540;2024-02-15T00:13:30;23.40;;;18.55;;
49366;SDS011;35245;52.026;8.540;2024-02-15T00:15:58;25.67;;;18.55;;
49366;SDS011;35245;52.026;8.540;2024-02-15T00:18:26;24.10;;;18.42;;
49366;SDS011;35245;52.026;8.540;2024-02-15T00:20:53;23.30;;;18.60;;
49366;SDS011;35245;52.026;8.540;2024-02-15T00:23:20;25.60;;;19.38;;
49366;SDS011;35245;52.026;8.540;2024-02-15T00:25:47;24.13;;;18.50;;
49366;SDS011;35245;52.026;8.540;2024-02-15T00:28:16;24.58;;;19.08;;
49366;SDS011;35245;52.026;8.540;2024-02-15T00:30:43;24.00;;;18.15;;
49366;SDS011;35245;52.026;8.540;2024-02-15T00:33:10;26.10;;;19.20;;
49366;SDS011;35245;52.026;8.540;2024-02-15T00:35:37;30.35;;;20.60;;
49366;SDS011;35245;52.026;8.540;2024-02-15T00:38:04;24.00;;;18.92;;
49366;SDS011;35245;52.026;8.540;2024-02-15T00:40:32;23.52;;;18.42;;
49366;SDS011;35245;52.026;8.540;2024-02-15T00:42:59;26.40;;;20.90;;
49366;SDS011;35245;52.026;8.540;2024-02-15T00:45:28;28.88;;;21.17;;
49366;SDS011;35245;52.026;8.540;2024-02-15T00:47:55;27.85;;;20.60;;
49366;SDS011;35245;52.026;8.540;2024-02-15T00:50:22;26.88;;;20.02;;
49366;SDS011;35245;52.026;8.540;2024-02-15T00:52:49;25.50;;;19.90;;
49366;SDS011;35245;52.026;8.540;2024-02-15T00:55:16;26.98;;;20.38;;
49366;SDS011;35245;52.026;8.540;2024-02-15T00:57:44;31.75;;;20.75;;
49366;SDS011;35245;52.026;8.540;2024-02-15T01:00:11;24.08;;;20.08;;
49366;SDS011;35245;52.026;8.540;2024-02-15T01:02:41;27.35;;;20.10;;
49366;SDS011;35245;52.026;8.540;2024-02-15T01:05:08;27.48;;;20.98;;
49366;SDS011;35245;52.026;8.540;2024-02-15T01:07:36;27.73;;;20.63;;
49366;SDS011;35245;52.026;8.540;2024-02-15T01:10:03;27.20;;;20.17;;
49366;SDS011;35245;52.026;8.540;2024-02-15T01:12:32;24.90;;;19.45;;
49366;SDS011;35245;52.026;8.540;2024-02-15T01:14:59;24.95;;;19.75;;
49366;SDS011;35245;52.026;8.540;2024-02-15T01:17:26;27.17;;;20.85;;
49366;SDS011;35245;52.026;8.540;2024-02-15T01:19:54;27.80;;;21.42;;
49366;SDS011;35245;52.026;8.540;2024-02-15T01:22:21;27.02;;;20.25;;
49366;SDS011;35245;52.026;8.540;2024-02-15T01:24:48;25.33;;;20.45;;
49366;SDS011;35245;52.026;8.540;2024-02-15T01:27:15;27.55;;;21.63;;
49366;SDS011;35245;52.026;8.540;2024-02-15T01:29:42;28.60;;;22.63;;
49366;SDS011;35245;52.026;8.540;2024-02-15T01:32:10;30.98;;;21.75;;
49366;SDS011;35245;52.026;8.540;2024-02-15T01:34:37;29.00;;;22.65;;
49366;SDS011;35245;52.026;8.540;2024-02-15T01:37:05;31.42;;;22.63;;
49366;SDS011;35245;52.026;8.540;2024-02-15T01:39:33;32.53;;;23.95;;
49366;SDS011;35245;52.026;8.540;2024-02-15T01:42:00;30.67;;;22.55;;
49366;SDS011;35245;52.026;8.540;2024-02-15T01:44:28;32.85;;;24.20;;
49366;SDS011;35245;52.026;8.540;2024-02-15T01:46:55;27.00;;;21.05;;
49366;SDS011;35245;52.026;8.540;2024-02-15T01:49:22;30.00;;;22.23;;
49366;SDS011;35245;52.026;8.540;2024-02-15T01:51:51;31.25;;;21.77;;
49366;SDS011;35245;52.026;8.540;2024-02-15T01:54:24;32.33;;;22.33;;
49366;SDS011;35245;52.026;8.540;2024-02-15T01:56:51;26.17;;;21.20;;
49366;SDS011;35245;52.026;8.540;2024-02-15T01:59:21;26.25;;;20.70;;
49366;SDS011;35245;52.026;8.540;2024-02-15T02:01:51;30.40;;;21.90;;
49366;SDS011;35245;52.026;8.540;2024-02-15T02:04:18;26.65;;;20.40;;
49366;SDS011;35245;52.026;8.540;2024-02-15T02:06:46;27.38;;;20.70;;
49366;SDS011;35245;52.026;8.540;2024-02-15T02:09:13;30.70;;;21.38;;
49366;SDS011;35245;52.026;8.540;2024-02-15T02:11:42;26.80;;;19.95;;
49366;SDS011;35245;52.026;8.540;2024-02-15T02:14:13;31.98;;;22.38;;
49366;SDS011;35245;52.026;8.540;2024-02-15T02:16:40;32.88;;;23.38;;
49366;SDS011;35245;52.026;8.540;2024-02-15T02:19:07;31.50;;;23.48;;
49366;SDS011;35245;52.026;8.540;2024-02-15T02:21:35;29.73;;;22.40;;
49366;SDS011;35245;52.026;8.540;2024-02-15T02:24:06;29.25;;;22.67;;
49366;SDS011;35245;52.026;8.540;2024-02-15T02:26:41;28.98;;;21.55;;
49366;SDS011;35245;52.026;8.540;2024-02-15T02:29:08;30.63;;;21.90;;
49366;SDS011;35245;52.026;8.540;2024-02-15T02:31:35;31.77;;;22.40;;
49366;SDS011;35245;52.026;8.540;2024-02-15T02:34:03;32.47;;;22.27;;
49366;SDS011;35245;52.026;8.540;2024-02-15T02:36:31;32.28;;;22.90;;
49366;SDS011;35245;52.026;8.540;2024-02-15T02:38:59;31.02;;;22.17;;
49366;SDS011;35245;52.026;8.540;2024-02-15T02:41:26;31.02;;;21.40;;
49366;SDS011;35245;52.026;8.540;2024-02-15T02:43:56;30.05;;;21.85;;
49366;SDS011;35245;52.026;8.540;2024-02-15T02:46:23;32.65;;;22.33;;
49366;SDS011;35245;52.026;8.540;2024-02-15T02:48:50;31.00;;;22.63;;
49366;SDS011;35245;52.026;8.540;2024-02-15T02:51:18;32.78;;;21.92;;
49366;SDS011;35245;52.026;8.540;2024-02-15T02:53:45;30.05;;;22.33;;
49366;SDS011;35245;52.026;8.540;2024-02-15T02:56:12;32.10;;;23.38;;
49366;SDS011;35245;52.026;8.540;2024-02-15T02:58:39;30.73;;;21.90;;
49366;SDS011;35245;52.026;8.540;2024-02-15T03:01:08;36.20;;;24.05;;
49366;SDS011;35245;52.026;8.540;2024-02-15T03:03:35;31.15;;;23.52;;
49366;SDS011;35245;52.026;8.540;2024-02-15T03:06:04;34.90;;;24.55;;
49366;SDS011;35245;52.026;8.540;2024-02-15T03:08:32;34.88;;;24.08;;
49366;SDS011;35245;52.026;8.540;2024-02-15T03:10:59;33.28;;;24.27;;
49366;SDS011;35245;52.026;8.540;2024-02-15T03:13:26;34.25;;;23.77;;
49366;SDS011;35245;52.026;8.540;2024-02-15T03:15:54;29.45;;;22.65;;
49366;SDS011;35245;52.026;8.540;2024-02-15T03:18:22;42.30;;;27.45;;
49366;SDS011;35245;52.026;8.540;2024-02-15T03:20:49;37.17;;;24.65;;
49366;SDS011;35245;52.026;8.540;2024-02-15T03:23:16;39.10;;;26.85;;
49366;SDS011;35245;52.026;8.540;2024-02-15T03:25:43;39.40;;;26.88;;
49366;SDS011;35245;52.026;8.540;2024-02-15T03:28:10;43.78;;;28.55;;
49366;SDS011;35245;52.026;8.540;2024-02-15T03:30:37;38.92;;;28.20;;
49366;SDS011;35245;52.026;8.540;2024-02-15T03:33:04;35.42;;;25.50;;
49366;SDS011;35245;52.026;8.540;2024-02-15T03:35:33;36.90;;;25.67;;
49366;SDS011;35245;52.026;8.540;2024-02-15T03:38:01;39.38;;;26.85;;
49366;SDS011;35245;52.026;8.540;2024-02-15T03:40:28;43.40;;;28.08;;
49366;SDS011;35245;52.026;8.540;2024-02-15T03:42:57;39.58;;;28.08;;
49366;SDS011;35245;52.026;8.540;2024-02-15T03:45:24;37.35;;;27.27;;
49366;SDS011;35245;52.026;8.540;2024-02-15T03:47:51;37.00;;;26.48;;
49366;SDS011;35245;52.026;8.540;2024-02-15T03:50:18;39.47;;;28.05;;
49366;SDS011;35245;52.026;8.540;2024-02-15T03:52:48;37.95;;;28.80;;
49366;SDS011;35245;52.026;8.540;2024-02-15T03:55:16;41.97;;;28.77;;
49366;SDS011;35245;52.026;8.540;2024-02-15T03:57:44;38.78;;;28.30;;
49366;SDS011;35245;52.026;8.540;2024-02-15T04:00:11;38.28;;;26.88;;
49366;SDS011;35245;52.026;8.540;2024-02-15T04:02:40;45.20;;;29.60;;
49366;SDS011;35245;52.026;8.540;2024-02-15T04:05:07;43.40;;;29.23;;
49366;SDS011;35245;52.026;8.540;2024-02-15T04:07:37;37.45;;;27.25;;
49366;SDS011;35245;52.026;8.540;2024-02-15T04:10:06;40.10;;;27.50;;
49366;SDS011;35245;52.026;8.540;2024-02-15T04:12:34;43.38;;;29.08;;
49366;SDS011;35245;52.026;8.540;2024-02-15T04:15:01;39.22;;;27.33;;
49366;SDS011;35245;52.026;8.540;2024-02-15T04:17:32;44.67;;;30.80;;
49366;SDS011;35245;52.026;8.540;2024-02-15T04:20:00;38.53;;;28.17;;
49366;SDS011;35245;52.026;8.540;2024-02-15T04:22:28;39.90;;;28.00;;
49366;SDS011;35245;52.026;8.540;2024-02-15T04:24:56;43.05;;;28.33;;
49366;SDS011;35245;52.026;8.540;2024-02-15T04:27:25;37.13;;;27.23;;
49366;SDS011;35245;52.026;8.540;2024-02-15T04:29:52;43.42;;;27.52;;
49366;SDS011;35245;52.026;8.540;2024-02-15T04:32:19;38.72;;;27.50;;
49366;SDS011;35245;52.026;8.540;2024-02-15T04:34:47;41.45;;;28.90;;
49366;SDS011;35245;52.026;8.540;2024-02-15T04:37:14;42.22;;;29.02;;
49366;SDS011;35245;52.026;8.540;2024-02-15T04:39:43;37.88;;;27.48;;
49366;SDS011;35245;52.026;8.540;2024-02-15T04:42:11;40.03;;;28.75;;
49366;SDS011;35245;52.026;8.540;2024-02-15T04:44:39;40.55;;;28.05;;
49366;SDS011;35245;52.026;8.540;2024-02-15T04:47:06;42.60;;;28.88;;
49366;SDS011;35245;52.026;8.540;2024-02-15T04:49:33;37.72;;;27.60;;
49366;SDS011;35245;52.026;8.540;2024-02-15T04:52:03;39.33;;;28.05;;
49366;SDS011;35245;52.026;8.540;2024-02-15T04:54:31;43.65;;;27.83;;
49366;SDS011;35245;52.026;8.540;2024-02-15T04:56:58;38.35;;;27.02;;
49366;SDS011;35245;52.026;8.540;2024-02-15T04:59:25;37.58;;;25.88;;
49366;SDS011;35245;52.026;8.540;2024-02-15T05:01:55;32.50;;;25.13;;
49366;SDS011;35245;52.026;8.540;2024-02-15T05:04:24;36.35;;;23.90;;
49366;SDS011;35245;52.026;8.540;2024-02-15T05:06:51;32.35;;;23.33;;
49366;SDS011;35245;52.026;8.540;2024-02-15T05:09:18;36.72;;;25.02;;
49366;SDS011;35245;52.026;8.540;2024-02-15T05:11:47;34.42;;;23.27;;
49366;SDS011;35245;52.026;8.540;2024-02-15T05:14:15;34.47;;;23.98;;
49366;SDS011;35245;52.026;8.540;2024-02-15T05:16:44;32.42;;;22.75;;
49366;SDS011;35245;52.026;8.540;2024-02-15T05:19:15;36.22;;;22.58;;
49366;SDS011;35245;52.026;8.540;2024-02-15T05:21:43;30.00;;;21.67;;
49366;SDS011;35245;52.026;8.540;2024-02-15T05:24:12;24.90;;;18.58;;
49366;SDS011;35245;52.026;8.540;2024-02-15T05:26:39;28.92;;;19.77;;
49366;SDS011;35245;52.026;8.540;2024-02-15T05:29:08;23.55;;;18.35;;
49366;SDS011;35245;52.026;8.540;2024-02-15T05:31:36;23.95;;;18.23;;
49366;SDS011;35245;52.026;8.540;2024-02-15T05:34:05;27.52;;;17.27;;
49366;SDS011;35245;52.026;8.540;2024-02-15T05:36:37;23.17;;;16.30;;
49366;SDS011;35245;52.026;8.540;2024-02-15T05:39:05;23.80;;;18.40;;
49366;SDS011;35245;52.026;8.540;2024-02-15T05:41:32;22.90;;;17.08;;
49366;SDS011;35245;52.026;8.540;2024-02-15T05:44:00;20.63;;;16.08;;
49366;SDS011;35245;52.026;8.540;2024-02-15T05:46:30;20.65;;;16.70;;
49366;SDS011;35245;52.026;8.540;2024-02-15T05:48:57;24.67;;;17.13;;
49366;SDS011;35245;52.026;8.540;2024-02-15T05:51:24;24.42;;;16.13;;
49366;SDS011;35245;52.026;8.540;2024-02-15T05:53:53;24.73;;;16.02;;
49366;SDS011;35245;52.026;8.540;2024-02-15T05:56:23;21.63;;;15.18;;
49366;SDS011;35245;52.026;8.540;2024-02-15T05:58:51;19.92;;;15.23;;
49366;SDS011;35245;52.026;8.540;2024-02-15T06:01:18;22.23;;;14.77;;
49366;SDS011;35245;52.026;8.540;2024-02-15T06:03:45;19.92;;;13.48;;
49366;SDS011;35245;52.026;8.540;2024-02-15T06:06:13;19.00;;;14.23;;
49366;SDS011;35245;52.026;8.540;2024-02-15T06:08:40;22.42;;;13.23;;
49366;SDS011;35245;52.026;8.540;2024-02-15T06:11:08;16.52;;;11.88;;
49366;SDS011;35245;52.026;8.540;2024-02-15T06:13:35;15.20;;;11.40;;
49366;SDS011;35245;52.026;8.540;2024-02-15T06:16:03;16.70;;;11.57;;
49366;SDS011;35245;52.026;8.540;2024-02-15T06:18:34;17.63;;;10.52;;
49366;SDS011;35245;52.026;8.540;2024-02-15T06:21:02;11.77;;;9.23;;
49366;SDS011;35245;52.026;8.540;2024-02-15T06:23:30;14.50;;;10.77;;
49366;SDS011;35245;52.026;8.540;2024-02-15T06:25:58;14.65;;;10.15;;
49366;SDS011;35245;52.026;8.540;2024-02-15T06:28:29;16.05;;;10.68;;
49366;SDS011;35245;52.026;8.540;2024-02-15T06:31:13;13.25;;;9.88;;
49366;SDS011;35245;52.026;8.540;2024-02-15T06:33:58;16.40;;;9.98;;
49366;SDS011;35245;52.026;8.540;2024-02-15T06:36:45;15.43;;;10.65;;
49366;SDS011;35245;52.026;8.540;2024-02-15T06:39:31;12.90;;;10.00;;
49366;SDS011;35245;52.026;8.540;2024-02-15T06:42:06;12.80;;;9.80;;
49366;SDS011;35245;52.026;8.540;2024-02-15T06:44:34;13.88;;;9.35;;
49366;SDS011;35245;52.026;8.540;2024-02-15T06:47:02;14.43;;;8.95;;
49366;SDS011;35245;52.026;8.540;2024-02-15T06:49:29;14.38;;;9.18;;
49366;SDS011;35245;52.026;8.540;2024-02-15T06:51:56;14.43;;;9.15;;
49366;SDS011;35245;52.026;8.540;2024-02-15T06:54:24;14.20;;;8.88;;
49366;SDS011;35245;52.026;8.540;2024-02-15T06:56:51;14.07;;;9.15;;
49366;SDS011;35245;52.026;8.540;2024-02-15T06:59:19;13.90;;;9.68;;
49366;SDS011;35245;52.026;8.540;2024-02-15T07:01:48;13.43;;;8.75;;
49366;SDS011;35245;52.026;8.540;2024-02-15T07:04:17;12.07;;;8.32;;
49366;SDS011;35245;52.026;8.540;2024-02-15T07:06:45;12.45;;;8.80;;
49366;SDS011;35245;52.026;8.540;2024-02-15T07:09:14;12.20;;;8.88;;
49366;SDS011;35245;52.026;8.540;2024-02-15T07:11:43;15.27;;;9.80;;
49366;SDS011;35245;52.026;8.540;2024-02-15T07:14:11;12.13;;;8.63;;
49366;SDS011;35245;52.026;8.540;2024-02-15T07:16:38;15.88;;;8.98;;
49366;SDS011;35245;52.026;8.540;2024-02-15T07:19:07;14.55;;;8.80;;
49366;SDS011;35245;52.026;8.540;2024-02-15T07:21:34;20.73;;;9.10;;
49366;SDS011;35245;52.026;8.540;2024-02-15T07:24:02;17.30;;;9.38;;
49366;SDS011;35245;52.026;8.540;2024-02-15T07:26:30;14.05;;;8.18;;
49366;SDS011;35245;52.026;8.540;2024-02-15T07:29:00;13.57;;;8.13;;
49366;SDS011;35245;52.026;8.540;2024-02-15T07:31:31;13.68;;;8.98;;
49366;SDS011;35245;52.026;8.540;2024-02-15T07:33:59;19.45;;;8.38;;
49366;SDS011;35245;52.026;8.540;2024-02-15T07:36:28;13.93;;;7.85;;
49366;SDS011;35245;52.026;8.540;2024-02-15T07:38:55;20.60;;;7.95;;
49366;SDS011;35245;52.026;8.540;2024-02-15T07:41:25;15.15;;;7.25;;
49366;SDS011;35245;52.026;8.540;2024-02-15T07:43:53;9.65;;;6.93;;
49366;SDS011;35245;52.026;8.540;2024-02-15T07:46:21;14.20;;;7.55;;
49366;SDS011;35245;52.026;8.540;2024-02-15T07:48:49;16.27;;;8.55;;
49366;SDS011;35245;52.026;8.540;2024-02-15T07:51:16;17.05;;;7.95;;
49366;SDS011;35245;52.026;8.540;2024-02-15T07:53:46;18.23;;;7.40;;
49366;SDS011;35245;52.026;8.540;2024-02-15T07:56:14;16.42;;;6.63;;
49366;SDS011;35245;52.026;8.540;2024-02-15T07:58:43;11.02;;;6.32;;
49366;SDS011;35245;52.026;8.540;2024-02-15T08:01:11;10.65;;;6.10;;
49366;SDS011;35245;52.026;8.540;2024-02-15T08:03:39;11.43;;;6.32;;
49366;SDS011;35245;52.026;8.540;2024-02-15T08:06:09;8.82;;;6.57;;
49366;SDS011;35245;52.026;8.540;2024-02-15T08:08:38;8.02;;;5.30;;
49366;SDS011;35245;52.026;8.540;2024-02-15T08:11:07;12.30;;;6.18;;
49366;SDS011;35245;52.026;8.540;2024-02-15T08:13:40;10.63;;;5.80;;
49366;SDS011;35245;52.026;8.540;2024-02-15T08:16:13;10.77;;;5.13;;
49366;SDS011;35245;52.026;8.540;2024-02-15T08:18:41;11.23;;;5.35;;
49366;SDS011;35245;52.026;8.540;2024-02-15T08:21:11;11.10;;;5.72;;
49366;SDS011;35245;52.026;8.540;2024-02-15T08:23:38;12.38;;;5.55;;
49366;SDS011;35245;52.026;8.540;2024-02-15T08:26:05;9.43;;;5.75;;
49366;SDS011;35245;52.026;8.540;2024-02-15T08:28:36;11.65;;;5.60;;
49366;SDS011;35245;52.026;8.540;2024-02-15T08:31:03;11.48;;;4.82;;
49366;SDS011;35245;52.026;8.540;2024-02-15T08:33:30;10.30;;;5.20;;
49366;SDS011;35245;52.026;8.540;2024-02-15T08:35:57;12.60;;;4.82;;
49366;SDS011;35245;52.026;8.540;2024-02-15T08:38:27;11.20;;;5.07;;
49366;SDS011;35245;52.026;8.540;2024-02-15T08:40:54;10.23;;;4.57;;
49366;SDS011;35245;52.026;8.540;2024-02-15T08:43:22;9.20;;;5.38;;
49366;SDS011;35245;52.026;8.540;2024-02-15T08:45:49;11.07;;;5.05;;
49366;SDS011;35245;52.026;8.540;2024-02-15T08:48:18;8.25;;;4.65;;
49366;SDS011;35245;52.026;8.540;2024-02-15T08:50:47;12.70;;;4.90;;
49366;SDS011;35245;52.026;8.540;2024-02-15T08:53:14;14.15;;;6.10;;
49366;SDS011;35245;52.026;8.540;2024-02-15T08:55:44;9.77;;;5.32;;
49366;SDS011;35245;52.026;8.540;2024-02-15T08:58:11;9.70;;;5.13;;
49366;SDS011;35245;52.026;8.540;2024-02-15T09:00:40;11.60;;;5.63;;
49366;SDS011;35245;52.026;8.540;2024-02-15T09:03:09;10.40;;;5.70;;
49366;SDS011;35245;52.026;8.540;2024-02-15T09:05:37;11.65;;;5.15;;
49366;SDS011;35245;52.026;8.540;2024-02-15T09:08:05;7.93;;;5.53;;
49366;SDS011;35245;52.026;8.540;2024-02-15T09:10:33;8.75;;;5.50;;
49366;SDS011;35245;52.026;8.540;2024-02-15T09:13:01;12.18;;;5.78;;
49366;SDS011;35245;52.026;8.540;2024-02-15T09:15:31;11.25;;;4.53;;
49366;SDS011;35245;52.026;8.540;2024-02-15T09:17:59;9.93;;;5.30;;
49366;SDS011;35245;52.026;8.540;2024-02-15T09:20:26;10.38;;;4.95;;
49366;SDS011;35245;52.026;8.540;2024-02-15T09:22:54;10.57;;;4.40;;
49366;SDS011;35245;52.026;8.540;2024-02-15T09:25:22;10.23;;;4.70;;
49366;SDS011;35245;52.026;8.540;2024-02-15T09:27:50;11.82;;;5.88;;
49366;SDS011;35245;52.026;8.540;2024-02-15T09:30:19;7.72;;;4.63;;
49366;SDS011;35245;52.026;8.540;2024-02-15T09:32:49;9.40;;;5.05;;
49366;SDS011;35245;52.026;8.540;2024-02-15T09:35:18;12.10;;;5.50;;
49366;SDS011;35245;52.026;8.540;2024-02-15T09:37:47;8.65;;;4.45;;
49366;SDS011;35245;52.026;8.540;2024-02-15T09:40:15;8.73;;;4.20;;
49366;SDS011;35245;52.026;8.540;2024-02-15T09:42:43;9.88;;;4.95;;
49366;SDS011;35245;52.026;8.540;2024-02-15T09:45:12;8.45;;;4.28;;
49366;SDS011;35245;52.026;8.540;2024-02-15T09:47:40;10.65;;;4.93;;
49366;SDS011;35245;52.026;8.540;2024-02-15T09:50:09;9.13;;;4.45;;
49366;SDS011;35245;52.026;8.540;2024-02-15T09:52:40;8.88;;;4.40;;
49366;SDS011;35245;52.026;8.540;2024-02-15T09:55:11;9.27;;;4.47;;
49366;SDS011;35245;52.026;8.540;2024-02-15T09:57:38;10.75;;;5.45;;
49366;SDS011;35245;52.026;8.540;2024-02-15T10:00:08;10.57;;;4.20;;
49366;SDS011;35245;52.026;8.540;2024-02-15T10:02:38;9.30;;;3.90;;
49366;SDS011;35245;52.026;8.540;2024-02-15T10:05:09;8.25;;;3.95;;
49366;SDS011;35245;52.026;8.540;2024-02-15T10:07:37;10.30;;;4.60;;
49366;SDS011;35245;52.026;8.540;2024-02-15T10:10:14;9.82;;;3.95;;
49366;SDS011;35245;52.026;8.540;2024-02-15T10:12:44;8.98;;;3.88;;
49366;SDS011;35245;52.026;8.540;2024-02-15T10:15:26;8.50;;;3.70;;
49366;SDS011;35245;52.026;8.540;2024-02-15T10:17:56;7.43;;;4.15;;
49366;SDS011;35245;52.026;8.540;2024-02-15T10:20:24;8.15;;;4.63;;
49366;SDS011;35245;52.026;8.540;2024-02-15T10:22:54;7.78;;;4.47;;
49366;SDS011;35245;52.026;8.540;2024-02-15T10:25:36;9.85;;;4.10;;
49366;SDS011;35245;52.026;8.540;2024-02-15T10:28:04;11.63;;;4.95;;
49366;SDS011;35245;52.026;8.540;2024-02-15T10:30:33;12.15;;;4.65;;
49366;SDS011;35245;52.026;8.540;2024-02-15T10:33:01;9.50;;;4.63;;
49366;SDS011;35245;52.026;8.540;2024-02-15T10:35:28;9.77;;;4.38;;
49366;SDS011;35245;52.026;8.540;2024-02-15T10:38:05;8.68;;;4.80;;
49366;SDS011;35245;52.026;8.540;2024-02-15T10:40:34;9.05;;;4.32;;
49366;SDS011;35245;52.026;8.540;2024-02-15T10:43:02;11.18;;;5.05;;
49366;SDS011;35245;52.026;8.540;2024-02-15T10:45:30;8.73;;;4.90;;
49366;SDS011;35245;52.026;8.540;2024-02-15T10:47:59;11.00;;;4.63;;
49366;SDS011;35245;52.026;8.540;2024-02-15T10:50:26;10.13;;;4.82;;
49366;SDS011;35245;52.026;8.540;2024-02-15T10:52:54;15.93;;;6.65;;
49366;SDS011;35245;52.026;8.540;2024-02-15T10:55:29;17.65;;;6.95;;
49366;SDS011;35245;52.026;8.540;2024-02-15T10:58:05;14.93;;;7.10;;
49366;SDS011;35245;52.026;8.540;2024-02-15T11:00:33;12.82;;;6.40;;
49366;SDS011;35245;52.026;8.540;2024-02-15T11:03:03;14.13;;;6.10;;
49366;SDS011;35245;52.026;8.540;2024-02-15T11:05:34;10.35;;;6.25;;
49366;SDS011;35245;52.026;8.540;2024-02-15T11:08:04;11.75;;;6.10;;
49366;SDS011;35245;52.026;8.540;2024-02-15T11:10:35;11.32;;;5.85;;
49366;SDS011;35245;52.026;8.540;2024-02-15T11:13:03;15.00;;;5.65;;
49366;SDS011;35245;52.026;8.540;2024-02-15T11:15:43;11.27;;;5.80;;
49366;SDS011;35245;52.026;8.540;2024-02-15T11:21:10;9.10;;;5.85;;
49366;SDS011;35245;52.026;8.540;2024-02-15T11:23:38;13.55;;;6.28;;
49366;SDS011;35245;52.026;8.540;2024-02-15T11:26:09;12.60;;;7.78;;
49366;SDS011;35245;52.026;8.540;2024-02-15T11:29:00;13.32;;;5.65;;
49366;SDS011;35245;52.026;8.540;2024-02-15T11:40:28;13.35;;;6.60;;
49366;SDS011;35245;52.026;8.540;2024-02-15T11:43:46;15.48;;;7.30;;
49366;SDS011;35245;52.026;8.540;2024-02-15T11:46:23;10.90;;;6.10;;
49366;SDS011;35245;52.026;8.540;2024-02-15T11:48:52;17.80;;;7.80;;
49366;SDS011;35245;52.026;8.540;2024-02-15T11:51:27;15.02;;;7.35;;
49366;SDS011;35245;52.026;8.540;2024-02-15T11:54:02;15.15;;;6.43;;
49366;SDS011;35245;52.026;8.540;2024-02-15T11:56:32;16.42;;;8.18;;
49366;SDS011;35245;52.026;8.540;2024-02-15T11:59:31;12.82;;;6.13;;
49366;SDS011;35245;52.026;8.540;2024-02-15T12:02:34;9.13;;;5.40;;
49366;SDS011;35245;52.026;8.540;2024-02-15T12:05:19;12.85;;;6.30;;
49366;SDS011;35245;52.026;8.540;2024-02-15T12:08:04;12.30;;;5.35;;
49366;SDS011;35245;52.026;8.540;2024-02-15T12:10:56;11.43;;;5.28;;
49366;SDS011;35245;52.026;8.540;2024-02-15T12:13:41;10.10;;;4.57;;
49366;SDS011;35245;52.026;8.540;2024-02-15T12:16:28;9.30;;;4.40;;
49366;SDS011;35245;52.026;8.540;2024-02-15T12:19:12;7.15;;;3.13;;
49366;SDS011;35245;52.026;8.540;2024-02-15T12:21:42;9.73;;;3.63;;
49366;SDS011;35245;52.026;8.540;2024-02-15T12:24:10;5.20;;;2.83;;
49366;SDS011;35245;52.026;8.540;2024-02-15T12:26:38;7.60;;;3.47;;
49366;SDS011;35245;52.026;8.540;2024-02-15T12:29:07;7.55;;;3.28;;
49366;SDS011;35245;52.026;8.540;2024-02-15T12:31:36;7.78;;;3.20;;
49366;SDS011;35245;52.026;8.540;2024-02-15T12:34:04;7.95;;;2.60;;
49366;SDS011;35245;52.026;8.540;2024-02-15T12:36:32;8.70;;;3.17;;
49366;SDS011;35245;52.026;8.540;2024-02-15T12:39:02;8.55;;;3.45;;
49366;SDS011;35245;52.026;8.540;2024-02-15T12:41:36;5.15;;;2.60;;
49366;SDS011;35245;52.026;8.540;2024-02-15T12:44:06;7.60;;;3.20;;
49366;SDS011;35245;52.026;8.540;2024-02-15T12:46:36;9.60;;;3.47;;
49366;SDS011;35245;52.026;8.540;2024-02-15T12:49:06;6.43;;;2.60;;
49366;SDS011;35245;52.026;8.540;2024-02-15T12:51:38;3.83;;;2.35;;
49366;SDS011;35245;52.026;8.540;2024-02-15T12:54:09;7.18;;;3.28;;
49366;SDS011;35245;52.026;8.540;2024-02-15T12:56:38;5.43;;;2.97;;
49366;SDS011;35245;52.026;8.540;2024-02-15T12:59:05;8.18;;;3.17;;
49366;SDS011;35245;52.026;8.540;2024-02-15T13:01:32;8.07;;;2.28;;
49366;SDS011;35245;52.026;8.540;2024-02-15T13:04:01;4.30;;;1.90;;
49366;SDS011;35245;52.026;8.540;2024-02-15T13:06:31;7.07;;;2.10;;
49366;SDS011;35245;52.026;8.540;2024-02-15T13:09:00;5.43;;;1.60;;
49366;SDS011;35245;52.026;8.540;2024-02-15T13:11:28;4.35;;;2.28;;
49366;SDS011;35245;52.026;8.540;2024-02-15T13:13:57;8.23;;;2.40;;
49366;SDS011;35245;52.026;8.540;2024-02-15T13:16:24;4.22;;;2.13;;
49366;SDS011;35245;52.026;8.540;2024-02-15T13:18:53;6.15;;;2.20;;
49366;SDS011;35245;52.026;8.540;2024-02-15T13:21:20;5.80;;;2.00;;
49366;SDS011;35245;52.026;8.540;2024-02-15T13:23:49;7.00;;;2.60;;
49366;SDS011;35245;52.026;8.540;2024-02-15T13:26:16;4.50;;;2.00;;
49366;SDS011;35245;52.026;8.540;2024-02-15T13:28:45;3.78;;;1.88;;
49366;SDS011;35245;52.026;8.540;2024-02-15T13:31:12;6.90;;;1.80;;
49366;SDS011;35245;52.026;8.540;2024-02-15T13:33:39;6.07;;;2.47;;
49366;SDS011;35245;52.026;8.540;2024-02-15T13:36:06;5.18;;;1.90;;
49366;SDS011;35245;52.026;8.540;2024-02-15T13:38:37;5.05;;;2.22;;
49366;SDS011;35245;52.026;8.540;2024-02-15T13:41:04;5.47;;;2.10;;
49366;SDS011;35245;52.026;8.540;2024-02-15T13:43:31;10.18;;;2.83;;
49366;SDS011;35245;52.026;8.540;2024-02-15T13:45:59;6.15;;;2.15;;
49366;SDS011;35245;52.026;8.540;2024-02-15T13:48:27;7.30;;;2.30;;
49366;SDS011;35245;52.026;8.540;2024-02-15T13:50:56;7.57;;;2.10;;
49366;SDS011;35245;52.026;8.540;2024-02-15T13:53:24;9.00;;;2.58;;
49366;SDS011;35245;52.026;8.540;2024-02-15T13:55:54;8.80;;;2.72;;
49366;SDS011;35245;52.026;8.540;2024-02-15T13:58:23;6.80;;;2.40;;
49366;SDS011;35245;52.026;8.540;2024-02-15T14:00:50;9.82;;;2.33;;
49366;SDS011;35245;52.026;8.540;2024-02-15T14:03:17;5.55;;;2.10;;
49366;SDS011;35245;52.026;8.540;2024-02-15T14:05:47;5.35;;;2.42;;
49366;SDS011;35245;52.026;8.540;2024-02-15T14:08:14;6.80;;;2.20;;
49366;SDS011;35245;52.026;8.540;2024-02-15T14:10:42;5.97;;;2.20;;
49366;SDS011;35245;52.026;8.540;2024-02-15T14:13:11;4.72;;;2.00;;
49366;SDS011;35245;52.026;8.540;2024-02-15T14:15:39;5.72;;;1.58;;
49366;SDS011;35245;52.026;8.540;2024-02-15T14:18:06;4.60;;;1.90;;
49366;SDS011;35245;52.026;8.540;2024-02-15T14:23:07;6.63;;;2.08;;
49366;SDS011;35245;52.026;8.540;2024-02-15T14:25:38;4.53;;;1.80;;
49366;SDS011;35245;52.026;8.540;2024-02-15T14:28:06;6.63;;;1.90;;
49366;SDS011;35245;52.026;8.540;2024-02-15T14:30:35;8.73;;;1.83;;
49366;SDS011;35245;52.026;8.540;2024-02-15T14:33:20;5.88;;;1.80;;
49366;SDS011;35245;52.026;8.540;2024-02-15T14:35:47;6.70;;;2.42;;
49366;SDS011;35245;52.026;8.540;2024-02-15T14:38:18;7.23;;;2.03;;
49366;SDS011;35245;52.026;8.540;2024-02-15T14:40:46;5.28;;;2.28;;
49366;SDS011;35245;52.026;8.540;2024-02-15T14:43:18;6.45;;;2.10;;
49366;SDS011;35245;52.026;8.540;2024-02-15T14:45:48;5.25;;;2.10;;
49366;SDS011;35245;52.026;8.540;2024-02-15T14:48:16;4.10;;;1.35;;
49366;SDS011;35245;52.026;8.540;2024-02-15T14:50:45;7.05;;;1.95;;
49366;SDS011;35245;52.026;8.540;2024-02-15T14:53:15;2.92;;;1.70;;
49366;SDS011;35245;52.026;8.540;2024-02-15T14:55:43;4.43;;;2.00;;
49366;SDS011;35245;52.026;8.540;2024-02-15T14:58:11;6.57;;;3.25;;
49366;SDS011;35245;52.026;8.540;2024-02-15T15:00:40;4.93;;;2.17;;